JAL93 RJTT-RKSS
Flight info
| Callsign | JAL93 |
|---|---|
| Flight time | N/A |
| Altitude | 40000 |
| Route | BEKLA Y18 PIGAP Y182 BIDIK Y16 SAPRA Y685 GUKDO GUKDO2T |
| Aircraft | B772/H-SDE2E3FGHIJ5LORVWXY/AA6BA4 |
Departure
| Time | N/A |
|---|---|
| Airport | Tokyo Haneda International Airport (RJTT) |
Arrival
| Time | 2026-05-01 08:37 |
|---|---|
| Airport | Gimpo International Airport (RKSS) |
| Time | Latitude | Longitude | Altitude | Speed | Heading |
|---|---|---|---|---|---|
| 2026-05-01 07:23 | 36.00724 | 136.28635 | 39590 ft | 441 kts | 264° |
| 2026-05-01 07:24 | 36.00609 | 136.17259 | 39587 ft | 440 kts | 264° |
| 2026-05-01 07:24 | 36.00528 | 136.09767 | 39599 ft | 440 kts | 264° |
| 2026-05-01 07:25 | 36.00440 | 136.02185 | 39592 ft | 443 kts | 265° |
| 2026-05-01 07:25 | 36.00348 | 135.94618 | 39594 ft | 442 kts | 265° |
| 2026-05-01 07:26 | 36.00251 | 135.87064 | 39590 ft | 443 kts | 265° |
| 2026-05-01 07:26 | 36.00149 | 135.79488 | 39596 ft | 444 kts | 265° |
| 2026-05-01 07:27 | 36.00042 | 135.71895 | 39600 ft | 444 kts | 265° |
| 2026-05-01 07:27 | 35.99927 | 135.64235 | 39590 ft | 448 kts | 265° |
| 2026-05-01 07:28 | 35.99812 | 135.56601 | 39598 ft | 445 kts | 265° |
| 2026-05-01 07:28 | 35.99690 | 135.48981 | 39597 ft | 444 kts | 265° |
| 2026-05-01 07:29 | 35.99564 | 135.41370 | 39623 ft | 446 kts | 265° |
| 2026-05-01 07:29 | 35.99433 | 135.33733 | 39602 ft | 446 kts | 265° |
| 2026-05-01 07:30 | 35.99297 | 135.26125 | 39581 ft | 447 kts | 265° |
| 2026-05-01 07:30 | 35.99153 | 135.18391 | 39594 ft | 450 kts | 265° |
| 2026-05-01 07:31 | 35.99007 | 135.10733 | 39600 ft | 449 kts | 265° |
| 2026-05-01 07:32 | 35.98620 | 134.91466 | 39598 ft | 449 kts | 265° |
| 2026-05-01 07:33 | 35.98371 | 134.79944 | 39600 ft | 450 kts | 265° |
| 2026-05-01 07:33 | 35.98110 | 134.68362 | 39625 ft | 451 kts | 266° |
| 2026-05-01 07:34 | 35.97837 | 134.56848 | 39485 ft | 449 kts | 266° |
| 2026-05-01 07:34 | 35.97743 | 134.52977 | 39590 ft | 450 kts | 266° |
| 2026-05-01 07:35 | 35.97648 | 134.49135 | 39593 ft | 452 kts | 266° |
| 2026-05-01 07:35 | 35.97456 | 134.41431 | 39600 ft | 451 kts | 266° |
| 2026-05-01 07:36 | 35.97257 | 134.33685 | 39599 ft | 452 kts | 266° |
| 2026-05-01 07:36 | 35.97055 | 134.25984 | 39602 ft | 452 kts | 266° |
| 2026-05-01 07:37 | 35.96741 | 134.14407 | 39596 ft | 451 kts | 266° |
| 2026-05-01 07:37 | 35.96525 | 134.06683 | 39603 ft | 453 kts | 266° |
| 2026-05-01 07:38 | 35.96305 | 133.98941 | 39602 ft | 452 kts | 266° |
| 2026-05-01 07:39 | 35.95963 | 133.87328 | 39604 ft | 453 kts | 266° |
| 2026-05-01 07:39 | 35.95610 | 133.75766 | 39606 ft | 452 kts | 266° |
| 2026-05-01 07:40 | 35.95369 | 133.68053 | 39606 ft | 452 kts | 266° |
| 2026-05-01 07:40 | 35.95123 | 133.60338 | 39601 ft | 451 kts | 266° |
| 2026-05-01 07:41 | 35.94871 | 133.52615 | 39617 ft | 452 kts | 267° |
| 2026-05-01 07:42 | 35.94485 | 133.41045 | 39655 ft | 452 kts | 267° |
| 2026-05-01 07:42 | 35.94222 | 133.33340 | 39617 ft | 450 kts | 266° |
| 2026-05-01 07:43 | 35.93955 | 133.25653 | 39676 ft | 451 kts | 266° |
| 2026-05-01 07:43 | 35.93543 | 133.14099 | 39610 ft | 452 kts | 266° |
| 2026-05-01 07:44 | 35.92977 | 132.98674 | 39650 ft | 452 kts | 267° |
| 2026-05-01 07:45 | 35.92687 | 132.90991 | 39650 ft | 450 kts | 267° |
| 2026-05-01 07:45 | 35.92391 | 132.83260 | 39638 ft | 452 kts | 267° |
| 2026-05-01 07:46 | 35.92092 | 132.75583 | 39704 ft | 449 kts | 267° |
| 2026-05-01 07:47 | 35.91635 | 132.64108 | 39687 ft | 449 kts | 267° |
| 2026-05-01 07:47 | 35.91326 | 132.56494 | 39645 ft | 447 kts | 267° |
| 2026-05-01 07:48 | 35.90852 | 132.45030 | 39681 ft | 449 kts | 268° |
| 2026-05-01 07:48 | 35.90528 | 132.37355 | 39686 ft | 446 kts | 268° |
| 2026-05-01 07:49 | 35.90038 | 132.25935 | 39693 ft | 448 kts | 267° |
| 2026-05-01 07:50 | 35.89705 | 132.18327 | 39708 ft | 447 kts | 267° |
| 2026-05-01 07:50 | 35.89196 | 132.06898 | 39708 ft | 446 kts | 268° |
| 2026-05-01 07:51 | 35.88850 | 131.99274 | 39714 ft | 445 kts | 267° |
| 2026-05-01 07:52 | 35.88323 | 131.87837 | 39709 ft | 446 kts | 268° |
| 2026-05-01 07:52 | 35.87967 | 131.80263 | 39708 ft | 447 kts | 268° |
| 2026-05-01 07:53 | 35.87421 | 131.68823 | 39717 ft | 445 kts | 268° |
| 2026-05-01 07:53 | 35.87054 | 131.61250 | 39723 ft | 445 kts | 268° |
| 2026-05-01 07:55 | 35.86109 | 131.42213 | 39730 ft | 444 kts | 268° |
| 2026-05-01 07:56 | 35.85137 | 131.23224 | 39732 ft | 446 kts | 268° |
| 2026-05-01 07:57 | 35.84541 | 131.11859 | 39741 ft | 445 kts | 268° |
| 2026-05-01 07:58 | 35.83727 | 130.96674 | 39746 ft | 444 kts | 268° |
| 2026-05-01 07:59 | 35.82895 | 130.81519 | 39760 ft | 443 kts | 268° |
| 2026-05-01 08:00 | 35.84046 | 130.59024 | 39757 ft | 441 kts | 280° |
| 2026-05-01 08:01 | 35.85950 | 130.44200 | 39752 ft | 438 kts | 281° |
| 2026-05-01 08:02 | 35.87350 | 130.33075 | 39768 ft | 438 kts | 280° |
| 2026-05-01 08:03 | 35.88737 | 130.21931 | 39762 ft | 437 kts | 280° |
| 2026-05-01 08:03 | 35.90104 | 130.10860 | 39765 ft | 437 kts | 280° |
| 2026-05-01 08:04 | 35.91914 | 129.96053 | 39758 ft | 436 kts | 280° |
| 2026-05-01 08:05 | 35.93257 | 129.84961 | 39755 ft | 436 kts | 280° |
| 2026-05-01 08:06 | 35.94589 | 129.73868 | 39757 ft | 435 kts | 281° |
| 2026-05-01 08:07 | 35.96339 | 129.59164 | 39758 ft | 435 kts | 281° |
| 2026-05-01 08:08 | 35.98150 | 129.48230 | 39757 ft | 431 kts | 292° |
| 2026-05-01 08:08 | 36.01014 | 129.41727 | 39754 ft | 431 kts | 305° |
| 2026-05-01 08:09 | 36.04495 | 129.35709 | 39750 ft | 430 kts | 305° |
| 2026-05-01 08:09 | 36.08007 | 129.29637 | 39762 ft | 431 kts | 305° |
| 2026-05-01 08:10 | 36.14939 | 129.17603 | 39778 ft | 432 kts | 305° |
| 2026-05-01 08:11 | 36.21851 | 129.05551 | 39784 ft | 429 kts | 305° |
| 2026-05-01 08:12 | 36.27027 | 128.96498 | 39792 ft | 429 kts | 305° |
| 2026-05-01 08:13 | 36.32181 | 128.87459 | 39777 ft | 428 kts | 305° |
| 2026-05-01 08:13 | 36.37324 | 128.78416 | 39765 ft | 428 kts | 305° |
| 2026-05-01 08:14 | 36.40731 | 128.72412 | 39768 ft | 425 kts | 305° |
| 2026-05-01 08:14 | 36.44152 | 128.66371 | 39772 ft | 426 kts | 305° |
| 2026-05-01 08:15 | 36.49213 | 128.57417 | 39504 ft | 421 kts | 305° |
| 2026-05-01 08:15 | 36.50897 | 128.54433 | 39153 ft | 423 kts | 305° |
| 2026-05-01 08:16 | 36.52592 | 128.51427 | 38854 ft | 424 kts | 305° |
| 2026-05-01 08:16 | 36.54273 | 128.48441 | 38455 ft | 420 kts | 306° |
| 2026-05-01 08:16 | 36.55934 | 128.45488 | 37423 ft | 427 kts | 306° |
| 2026-05-01 08:16 | 36.57500 | 128.42703 | 36373 ft | 433 kts | 306° |
| 2026-05-01 08:17 | 36.59209 | 128.39661 | 35569 ft | 425 kts | 306° |
| 2026-05-01 08:17 | 36.60883 | 128.36678 | 34880 ft | 413 kts | 307° |
| 2026-05-01 08:17 | 36.62506 | 128.33781 | 33888 ft | 410 kts | 306° |
| 2026-05-01 08:17 | 36.64144 | 128.30870 | 32412 ft | 417 kts | 306° |
| 2026-05-01 08:18 | 36.65833 | 128.27916 | 30777 ft | 432 kts | 306° |
| 2026-05-01 08:18 | 36.69340 | 128.21768 | 28750 ft | 429 kts | 306° |
| 2026-05-01 08:19 | 36.72669 | 128.15916 | 27744 ft | 407 kts | 306° |
| 2026-05-01 08:19 | 36.74294 | 128.13055 | 26870 ft | 406 kts | 306° |
| 2026-05-01 08:19 | 36.75913 | 128.10205 | 25952 ft | 405 kts | 306° |
| 2026-05-01 08:19 | 36.77529 | 128.07356 | 25283 ft | 401 kts | 306° |
| 2026-05-01 08:20 | 36.79132 | 128.04527 | 24678 ft | 397 kts | 306° |
| 2026-05-01 08:20 | 36.80701 | 128.01756 | 24080 ft | 393 kts | 306° |
| 2026-05-01 08:20 | 36.82276 | 127.98972 | 23471 ft | 389 kts | 306° |
| 2026-05-01 08:20 | 36.83821 | 127.96239 | 22891 ft | 385 kts | 306° |
| 2026-05-01 08:21 | 36.85343 | 127.93544 | 22314 ft | 381 kts | 306° |
| 2026-05-01 08:21 | 36.86868 | 127.90836 | 21722 ft | 378 kts | 306° |
| 2026-05-01 08:21 | 36.88363 | 127.88182 | 21151 ft | 374 kts | 306° |
| 2026-05-01 08:21 | 36.89861 | 127.85519 | 20562 ft | 371 kts | 306° |
| 2026-05-01 08:22 | 36.91330 | 127.82908 | 19980 ft | 368 kts | 307° |
| 2026-05-01 08:22 | 36.92786 | 127.80316 | 19430 ft | 365 kts | 307° |
| 2026-05-01 08:22 | 36.94244 | 127.77721 | 18840 ft | 362 kts | 307° |
| 2026-05-01 08:22 | 36.95681 | 127.75168 | 18279 ft | 359 kts | 307° |
| 2026-05-01 08:23 | 36.97102 | 127.72640 | 17738 ft | 357 kts | 307° |
| 2026-05-01 08:23 | 36.98521 | 127.70114 | 17166 ft | 355 kts | 307° |
| 2026-05-01 08:23 | 36.99939 | 127.67596 | 16581 ft | 352 kts | 309° |
| 2026-05-01 08:23 | 37.01522 | 127.65318 | 16009 ft | 347 kts | 318° |
| 2026-05-01 08:24 | 37.03366 | 127.63408 | 15435 ft | 343 kts | 324° |
| 2026-05-01 08:24 | 37.05164 | 127.61426 | 14429 ft | 356 kts | 317° |
| 2026-05-01 08:24 | 37.06707 | 127.58991 | 13589 ft | 364 kts | 308° |
| 2026-05-01 08:24 | 37.07984 | 127.56252 | 13008 ft | 361 kts | 304° |
| 2026-05-01 08:25 | 37.09197 | 127.53516 | 12441 ft | 357 kts | 304° |
| 2026-05-01 08:25 | 37.10379 | 127.50841 | 11887 ft | 354 kts | 304° |
| 2026-05-01 08:25 | 37.11560 | 127.48164 | 11311 ft | 350 kts | 304° |
| 2026-05-01 08:25 | 37.12735 | 127.45501 | 10839 ft | 345 kts | 303° |
| 2026-05-01 08:26 | 37.13864 | 127.42931 | 10748 ft | 329 kts | 304° |
| 2026-05-01 08:26 | 37.14945 | 127.40469 | 10671 ft | 314 kts | 304° |
| 2026-05-01 08:26 | 37.15980 | 127.38110 | 10554 ft | 302 kts | 304° |
| 2026-05-01 08:26 | 37.16969 | 127.35858 | 10411 ft | 291 kts | 304° |
| 2026-05-01 08:27 | 37.17930 | 127.33669 | 10371 ft | 277 kts | 303° |
| 2026-05-01 08:27 | 37.18838 | 127.31597 | 10251 ft | 268 kts | 304° |
| 2026-05-01 08:27 | 37.19733 | 127.29562 | 9923 ft | 267 kts | 304° |
| 2026-05-01 08:27 | 37.20628 | 127.27530 | 9569 ft | 267 kts | 303° |
| 2026-05-01 08:28 | 37.21526 | 127.25487 | 9238 ft | 267 kts | 304° |
| 2026-05-01 08:28 | 37.22417 | 127.23460 | 8954 ft | 265 kts | 303° |
| 2026-05-01 08:28 | 37.23299 | 127.21451 | 8638 ft | 263 kts | 303° |
| 2026-05-01 08:28 | 37.24186 | 127.19432 | 8309 ft | 263 kts | 303° |
| 2026-05-01 08:29 | 37.25084 | 127.17435 | 7969 ft | 261 kts | 308° |
| 2026-05-01 08:29 | 37.26234 | 127.15735 | 7618 ft | 258 kts | 317° |
| 2026-05-01 08:29 | 37.27524 | 127.14130 | 7098 ft | 264 kts | 318° |
| 2026-05-01 08:29 | 37.28843 | 127.12508 | 6695 ft | 266 kts | 318° |
| 2026-05-01 08:30 | 37.30152 | 127.10887 | 6370 ft | 265 kts | 317° |
| 2026-05-01 08:30 | 37.31465 | 127.09257 | 6068 ft | 262 kts | 317° |
| 2026-05-01 08:30 | 37.32744 | 127.07639 | 5773 ft | 260 kts | 316° |
| 2026-05-01 08:30 | 37.34003 | 127.06023 | 5468 ft | 259 kts | 316° |
| 2026-05-01 08:31 | 37.35259 | 127.04421 | 5162 ft | 257 kts | 316° |
| 2026-05-01 08:31 | 37.36514 | 127.02832 | 4833 ft | 255 kts | 317° |
| 2026-05-01 08:31 | 37.37753 | 127.01275 | 4519 ft | 250 kts | 317° |
| 2026-05-01 08:31 | 37.38981 | 126.99744 | 4220 ft | 244 kts | 317° |
| 2026-05-01 08:32 | 37.40170 | 126.98273 | 3921 ft | 240 kts | 317° |
| 2026-05-01 08:32 | 37.41340 | 126.96835 | 3631 ft | 230 kts | 317° |
| 2026-05-01 08:32 | 37.42459 | 126.95460 | 3371 ft | 218 kts | 317° |
| 2026-05-01 08:32 | 37.43513 | 126.94163 | 3138 ft | 209 kts | 317° |
| 2026-05-01 08:33 | 37.44500 | 126.92940 | 2872 ft | 188 kts | 316° |
| 2026-05-01 08:33 | 37.45394 | 126.91828 | 2682 ft | 172 kts | 316° |
| 2026-05-01 08:33 | 37.46221 | 126.90796 | 2477 ft | 165 kts | 316° |
| 2026-05-01 08:33 | 37.47017 | 126.89803 | 2256 ft | 156 kts | 316° |
| 2026-05-01 08:34 | 37.47757 | 126.88880 | 2053 ft | 145 kts | 316° |
| 2026-05-01 08:34 | 37.48466 | 126.87997 | 1859 ft | 143 kts | 315° |
| 2026-05-01 08:34 | 37.49175 | 126.87113 | 1663 ft | 142 kts | 315° |
| 2026-05-01 08:34 | 37.49880 | 126.86233 | 1464 ft | 143 kts | 315° |
| 2026-05-01 08:35 | 37.50581 | 126.85358 | 1263 ft | 139 kts | 315° |
| 2026-05-01 08:35 | 37.51228 | 126.84555 | 1083 ft | 125 kts | 313° |
| 2026-05-01 08:35 | 37.51858 | 126.83763 | 914 ft | 126 kts | 314° |
| 2026-05-01 08:35 | 37.52492 | 126.82976 | 728 ft | 129 kts | 313° |
| 2026-05-01 08:36 | 37.53133 | 126.82175 | 561 ft | 130 kts | 313° |
| 2026-05-01 08:36 | 37.53784 | 126.81376 | 415 ft | 131 kts | 312° |
| 2026-05-01 08:36 | 37.54439 | 126.80569 | 230 ft | 131 kts | 311° |
| 2026-05-01 08:36 | 37.55094 | 126.79750 | 78 ft | 129 kts | 309° |
| 2026-05-01 08:37 | 37.55619 | 126.79057 | 73 ft | 86 kts | 316° |
| 2026-05-01 08:37 | 37.55966 | 126.78640 | 73 ft | 56 kts | 315° |
| 2026-05-01 08:37 | 37.56220 | 126.78389 | 73 ft | 41 kts | 341° |
| 2026-05-01 08:37 | 37.56415 | 126.78333 | 73 ft | 20 kts | 0° |
| 2026-05-01 08:38 | 37.56493 | 126.78365 | 73 ft | 10 kts | 37° |
| 2026-05-01 08:38 | 37.56555 | 126.78439 | 73 ft | 13 kts | 44° |
| 2026-05-01 08:38 | 37.56628 | 126.78530 | 73 ft | 16 kts | 45° |
| 2026-05-01 08:38 | 37.56662 | 126.78629 | 73 ft | 12 kts | 119° |
| 2026-05-01 08:39 | 37.56594 | 126.78721 | 73 ft | 15 kts | 135° |
| 2026-05-01 08:39 | 37.56512 | 126.78823 | 73 ft | 17 kts | 135° |
| 2026-05-01 08:39 | 37.56420 | 126.78938 | 73 ft | 19 kts | 135° |
| 2026-05-01 08:39 | 37.56321 | 126.79063 | 73 ft | 21 kts | 135° |
| 2026-05-01 08:40 | 37.56207 | 126.79291 | 73 ft | 14 kts | 54° |
| 2026-05-01 08:40 | 37.56284 | 126.79391 | 73 ft | 17 kts | 46° |
| 2026-05-01 08:40 | 37.56372 | 126.79502 | 73 ft | 18 kts | 45° |
| 2026-05-01 08:41 | 37.56469 | 126.79625 | 73 ft | 20 kts | 45° |
| 2026-05-01 08:41 | 37.56576 | 126.79758 | 73 ft | 22 kts | 45° |
| 2026-05-01 08:41 | 37.56677 | 126.79885 | 73 ft | 20 kts | 45° |
| 2026-05-01 08:41 | 37.56741 | 126.79964 | 73 ft | 3 kts | 46° |
| 2026-05-01 08:42 | 37.56743 | 126.79993 | 73 ft | 4 kts | 117° |
| 2026-05-01 08:42 | 37.56728 | 126.80016 | 73 ft | 3 kts | 136° |
| 2026-05-01 08:42 | 37.56709 | 126.80039 | 73 ft | 2 kts | 135° |
| 2026-05-01 08:42 | 37.56707 | 126.80042 | 73 ft | 0 kts | 135° |